Time;durP1;ratioP1;P1;durP2;ratioP2;P2;SDS_P1;SDS_P2;PMS_P1;PMS_P2;Temp;Humidity;BMP_temperature;BMP_pressure;BME280_temperature;BME280_humidity;BME280_pressure;Samples;Min_cycle;Max_cycle;Signal;HPM_P1;HPM_P2
2024/03/19 06:02:31;;;;;;;;;;;;;;;;;;5021152;23;20442;-46
2024/03/19 06:04:56;;;;;;;;;;;;;;;;;;4976966;28;19953;-47
2024/03/19 06:07:22;;;;;;;;;;;;;;;;;;4990596;28;19922;-47
2024/03/19 06:09:48;;;;;;;;;;;;;;;;;;4975814;28;19945;-47
2024/03/19 06:12:14;;;;;;;;;;;;;;;;;;4972721;28;19968;-46
2024/03/19 06:14:40;;;;;;;;;;;;;;;;;;4972786;28;19937;-47
2024/03/19 06:17:06;;;;;;;;;;;;;;;;;;4974016;28;19911;-47
2024/03/19 06:19:32;;;;;;;;;;;;;;;;;;4973891;28;20562;-48
2024/03/19 06:21:58;;;;;;;;;;;;;;;;;;4974073;28;20005;-48
2024/03/19 06:24:24;;;;;;;;;;;;;;;;;;4975158;28;19943;-49
2024/03/19 06:26:50;;;;;;;;;;;;;;;;;;4987939;28;19914;-47
2024/03/19 06:29:15;;;;;;;;;;;;;;;;;;4981402;28;20335;-47
2024/03/19 06:31:41;;;;;;;;;;;;;;;;;;4971760;28;19925;-47
2024/03/19 06:34:08;;;;;;;;;;;;;;;;;;4977848;28;20319;-47
2024/03/19 06:36:34;;;;;;;;;;;;;;;;;;4993066;28;19910;-49
2024/03/19 06:39:00;;;;;;;;;;;;;;;;;;4983159;28;19917;-50
2024/03/19 06:41:26;;;;;;;;;;;;;;;;;;4973870;28;19941;-48
2024/03/19 06:43:52;;;;;;;;;;;;;;;;;;4972319;28;19906;-45
2024/03/19 06:46:18;;;;;;;;;;;;;;;;;;4973636;28;19929;-45
2024/03/19 06:48:45;;;;;;;;;;;;;;;;;;4973532;28;20336;-47
2024/03/19 06:51:11;;;;;;;;;;;;;;;;;;4973368;28;20407;-45
2024/03/19 06:53:38;;;;;;;;;;;;;;;;;;4971766;28;19921;-45
2024/03/19 06:56:04;;;;;;;;;;;;;;;;;;4973633;28;19910;-46
2024/03/19 06:58:30;;;;;;;;;;;;;;;;;;4973143;28;20388;-45
2024/03/19 07:00:56;;;;;;;;;;;;;;;;;;4974137;28;19933;-45
2024/03/19 07:03:22;;;;;;;;;;;;;;;;;;4991568;28;20462;-45
2024/03/19 07:05:50;;;;;;;;;;;;;;;;;;4971521;28;20311;-46
2024/03/19 07:08:16;;;;;;;;;;;;;;;;;;4972909;28;19947;-44
2024/03/19 07:10:42;;;;;;;;;;;;;;;;;;4973393;28;19921;-44
2024/03/19 07:13:08;;;;;;;;;;;;;;;;;;4971030;28;19918;-43
2024/03/19 07:15:34;;;;;;;;;;;;;;;;;;4973091;28;19911;-43
2024/03/19 07:18:01;;;;;;;;;;;;;;;;;;4971785;28;19910;-44
2024/03/19 07:20:31;;;;;;;;;;;;;;;;;;4967526;28;20555;-44
2024/03/19 07:22:57;;;;;;;;;;;;;;;;;;4977946;28;19914;-45
2024/03/19 07:25:24;;;;;;;;;;;;;;;;;;4978910;28;19914;-44
2024/03/19 07:27:50;;;;;;;;;;;;;;;;;;4975300;28;20418;-44
2024/03/19 07:30:17;;;;;;;;;;;;;;;;;;4972002;28;19914;-45
2024/03/19 07:32:44;;;;;;;;;;;;;;;;;;4970576;28;19944;-45
2024/03/19 07:35:10;;;;;;;;;;;;;;;;;;4971628;28;19914;-44
2024/03/19 07:37:36;;;;;;;;;;;;;;;;;;4973021;28;19910;-45
2024/03/19 07:40:03;;;;;;;;;;;;;;;;;;4972521;28;19954;-44
2024/03/19 07:42:29;;;;;;;;;;;;;;;;;;4972450;28;19918;-48
2024/03/19 07:44:55;;;;;;;;;;;;;;;;;;4983067;28;19910;-44
2024/03/19 07:47:21;;;;;;;;;;;;;;;;;;4991088;28;20001;-44
2024/03/19 07:49:46;;;;;;;;;;;;;;;;;;4990904;28;19914;-44
2024/03/19 07:52:13;;;;;;;;;;;;;;;;;;4985954;28;20303;-45
2024/03/19 07:54:39;;;;;;;;;;;;;;;;;;4990625;28;19910;-45
2024/03/19 07:57:05;;;;;;;;;;;;;;;;;;4991168;28;19921;-45
2024/03/19 07:59:31;;;;;;;;;;;;;;;;;;4990634;28;19957;-44
2024/03/19 08:01:57;;;;;;;;;;;;;;;;;;4990647;28;19918;-45
2024/03/19 08:04:23;;;;;;;;;;;;;;;;;;4989670;28;19914;-44
2024/03/19 08:06:49;;;;;;;;;;;;;;;;;;4985020;28;19957;-44
2024/03/19 08:09:15;;;;;;;;;;;;;;;;;;4974370;28;19920;-44
2024/03/19 08:11:41;;;;;;;;;;;;;;;;;;4980747;28;19965;-45
2024/03/19 08:14:07;;;;;;;;;;;;;;;;;;4978801;28;19914;-45
2024/03/19 08:16:33;;;;;;;;;;;;;;;;;;4975532;28;19933;-44
2024/03/19 08:19:00;;;;;;;;;;;;;;;;;;4978419;28;20425;-44
2024/03/19 08:21:26;;;;;;;;;;;;;;;;;;4987389;28;20414;-44
2024/03/19 08:23:52;;;;;;;;;;;;;;;;;;4982387;28;19922;-44
2024/03/19 08:26:18;;;;;;;;;;;;;;;;;;4978075;28;19965;-44
2024/03/19 08:28:44;;;;;;;;;;;;;;;;;;4985851;28;19917;-45
2024/03/19 08:31:10;;;;;;;;;;;;;;;;;;4979017;28;20033;-44
2024/03/19 08:33:36;;;;;;;;;;;;;;;;;;4968843;28;19914;-44
2024/03/19 08:36:02;;;;;;;;;;;;;;;;;;4976293;28;20013;-44
2024/03/19 08:38:28;;;;;;;;;;;;;;;;;;4979537;28;20017;-44
2024/03/19 08:40:54;;;;;;;;;;;;;;;;;;4992190;28;19917;-45
2024/03/19 08:43:20;;;;;;;;;;;;;;;;;;4990137;28;19910;-45
2024/03/19 08:45:46;;;;;;;;;;;;;;;;;;4974750;28;20294;-46
2024/03/19 08:48:12;;;;;;;;;;;;;;;;;;4974655;28;19917;-45
2024/03/19 08:50:38;;;;;;;;;;;;;;;;;;4975150;28;19910;-45
2024/03/19 08:53:04;;;;;;;;;;;;;;;;;;4974655;28;19961;-44
2024/03/19 08:55:30;;;;;;;;;;;;;;;;;;4974791;28;20419;-45
2024/03/19 08:57:56;;;;;;;;;;;;;;;;;;4974649;28;19911;-45
2024/03/19 09:00:22;;;;;;;;;;;;;;;;;;4972900;28;19918;-45
2024/03/19 09:02:48;;;;;;;;;;;;;;;;;;4974575;28;20312;-46
2024/03/19 09:05:14;;;;;;;;;;;;;;;;;;4974434;28;19911;-46
2024/03/19 09:07:40;;;;;;;;;;;;;;;;;;4974763;28;20221;-48
2024/03/19 09:10:06;;;;;;;;;;;;;;;;;;4974467;28;19910;-48
2024/03/19 09:12:32;;;;;;;;;;;;;;;;;;4974337;28;20065;-48
2024/03/19 09:14:58;;;;;;;;;;;;;;;;;;4974502;28;19917;-45
2024/03/19 09:17:23;;;;;;;;;;;;;;;;;;4974344;28;20500;-45
2024/03/19 09:19:49;;;;;;;;;;;;;;;;;;4974300;28;19917;-46
2024/03/19 09:22:15;;;;;;;;;;;;;;;;;;4974180;28;19917;-46
2024/03/19 09:24:41;;;;;;;;;;;;;;;;;;4974608;28;20299;-46
2024/03/19 09:27:08;;;;;;;;;;;;;;;;;;4974115;28;19917;-45
2024/03/19 09:29:35;;;;;;;;;;;;;;;;;;4973560;28;19914;-45
2024/03/19 09:32:02;;;;;;;;;;;;;;;;;;4971822;28;19925;-45
2024/03/19 09:34:28;;;;;;;;;;;;;;;;;;4968578;28;20327;-44
2024/03/19 09:36:54;;;;;;;;;;;;;;;;;;4973951;28;20356;-45
2024/03/19 09:39:20;;;;;;;;;;;;;;;;;;4972757;28;19943;-44
2024/03/19 09:41:46;;;;;;;;;;;;;;;;;;4973952;28;19910;-44
2024/03/19 09:44:12;;;;;;;;;;;;;;;;;;4971761;28;20131;-46
2024/03/19 09:46:38;;;;;;;;;;;;;;;;;;4971599;28;20005;-45
2024/03/19 09:49:03;;;;;;;;;;;;;;;;;;4985285;28;19921;-46
2024/03/19 09:51:32;;;;;;;;;;;;;;;;;;4972207;28;21809;-44
2024/03/19 09:53:57;;;;;;;;;;;;;;;;;;4972910;28;19929;-44
2024/03/19 09:56:23;;;;;;;;;;;;;;;;;;4986084;28;19914;-45
2024/03/19 09:58:50;;;;;;;;;;;;;;;;;;4992672;28;19976;-45
2024/03/19 10:01:16;;;;;;;;;;;;;;;;;;4993163;28;19955;-44
2024/03/19 10:03:42;;;;;;;;;;;;;;;;;;4993149;28;19949;-45
2024/03/19 10:06:08;;;;;;;;;;;;;;;;;;4993020;28;19909;-45
2024/03/19 10:08:34;;;;;;;;;;;;;;;;;;4992618;28;19914;-45
2024/03/19 10:11:00;;;;;;;;;;;;;;;;;;4993067;28;19956;-44
2024/03/19 10:13:26;;;;;;;;;;;;;;;;;;4992553;28;20329;-45
2024/03/19 10:15:52;;;;;;;;;;;;;;;;;;4992923;28;19910;-46
2024/03/19 10:18:18;;;;;;;;;;;;;;;;;;4992748;28;19906;-47
2024/03/19 10:20:44;;;;;;;;;;;;;;;;;;4983462;28;19910;-44
2024/03/19 10:23:10;;;;;;;;;;;;;;;;;;4973136;28;19933;-45
2024/03/19 10:25:37;;;;;;;;;;;;;;;;;;4973219;28;20404;-45
2024/03/19 10:28:04;;;;;;;;;;;;;;;;;;4973560;28;19911;-45
2024/03/19 10:30:30;;;;;;;;;;;;;;;;;;4973077;28;19932;-45
2024/03/19 10:32:56;;;;;;;;;;;;;;;;;;4972994;28;19914;-45
2024/03/19 10:35:22;;;;;;;;;;;;;;;;;;4972957;28;19918;-45
2024/03/19 10:37:51;;;;;;;;;;;;;;;;;;4972825;28;19914;-45
2024/03/19 10:40:17;;;;;;;;;;;;;;;;;;4972778;28;19910;-44
2024/03/19 10:42:43;;;;;;;;;;;;;;;;;;4972713;28;19922;-45
2024/03/19 10:45:09;;;;;;;;;;;;;;;;;;4972986;28;20277;-45
2024/03/19 10:47:35;;;;;;;;;;;;;;;;;;4972638;28;19910;-47
2024/03/19 10:50:01;;;;;;;;;;;;;;;;;;4972609;28;19917;-45
2024/03/19 10:52:27;;;;;;;;;;;;;;;;;;4972689;28;19914;-45
2024/03/19 10:54:53;;;;;;;;;;;;;;;;;;4972630;28;19949;-45
2024/03/19 10:57:20;;;;;;;;;;;;;;;;;;4972601;28;19954;-45
2024/03/19 10:59:46;;;;;;;;;;;;;;;;;;4972574;28;20293;-46
2024/03/19 11:02:12;;;;;;;;;;;;;;;;;;4972529;28;19925;-45
2024/03/19 11:04:37;;;;;;;;;;;;;;;;;;4972369;28;20019;-45
2024/03/19 11:07:03;;;;;;;;;;;;;;;;;;4972494;28;19917;-45
2024/03/19 11:09:29;;;;;;;;;;;;;;;;;;4972010;28;19910;-45
2024/03/19 11:11:55;;;;;;;;;;;;;;;;;;4972369;28;20292;-46
2024/03/19 11:14:21;;;;;;;;;;;;;;;;;;4972203;28;19957;-45
2024/03/19 11:16:47;;;;;;;;;;;;;;;;;;4972637;28;20331;-44
2024/03/19 11:19:13;;;;;;;;;;;;;;;;;;4972002;28;20480;-46
2024/03/19 11:21:39;;;;;;;;;;;;;;;;;;4972292;28;19969;-44
2024/03/19 11:24:05;;;;;;;;;;;;;;;;;;4972029;28;19957;-46
2024/03/19 11:26:31;;;;;;;;;;;;;;;;;;4972220;28;19921;-48
2024/03/19 11:28:57;;;;;;;;;;;;;;;;;;4972160;28;20000;-46
2024/03/19 11:31:23;;;;;;;;;;;;;;;;;;4972119;28;19914;-45
2024/03/19 11:33:49;;;;;;;;;;;;;;;;;;4972129;28;20184;-44
2024/03/19 11:36:15;;;;;;;;;;;;;;;;;;4972452;28;19911;-45
2024/03/19 11:38:41;;;;;;;;;;;;;;;;;;4971867;28;20429;-47
2024/03/19 11:41:07;;;;;;;;;;;;;;;;;;4972079;28;19910;-45
2024/03/19 11:43:33;;;;;;;;;;;;;;;;;;4971959;28;19914;-45
2024/03/19 11:45:59;;;;;;;;;;;;;;;;;;4971993;28;19914;-45
2024/03/19 11:48:25;;;;;;;;;;;;;;;;;;4971885;28;19916;-47
2024/03/19 11:50:53;;;;;;;;;;;;;;;;;;4972072;28;19910;-45
2024/03/19 11:53:19;;;;;;;;;;;;;;;;;;4972318;28;20327;-46
2024/03/19 11:55:46;;;;;;;;;;;;;;;;;;4975949;28;20070;-46
2024/03/19 11:58:12;;;;;;;;;;;;;;;;;;4975959;28;20001;-49
2024/03/19 12:00:38;;;;;;;;;;;;;;;;;;4975458;28;19946;-47
2024/03/19 12:03:04;;;;;;;;;;;;;;;;;;4975949;28;19989;-48
2024/03/19 12:05:29;;;;;;;;;;;;;;;;;;4975749;28;20391;-45
2024/03/19 12:07:55;;;;;;;;;;;;;;;;;;4975711;28;19982;-46
2024/03/19 12:10:24;;;;;;;;;;;;;;;;;;4975337;28;19969;-46
2024/03/19 12:12:50;;;;;;;;;;;;;;;;;;4976069;28;19997;-44
2024/03/19 12:15:16;;;;;;;;;;;;;;;;;;4975547;28;19945;-44
2024/03/19 12:17:42;;;;;;;;;;;;;;;;;;4975592;28;20296;-48
2024/03/19 12:20:10;;;;;;;;;;;;;;;;;;4975256;28;20005;-44
2024/03/19 12:22:36;;;;;;;;;;;;;;;;;;4975401;28;19910;-44
2024/03/19 12:25:02;;;;;;;;;;;;;;;;;;4975284;28;19914;-44
2024/03/19 12:27:28;;;;;;;;;;;;;;;;;;4975377;28;20376;-44
2024/03/19 12:29:54;;;;;;;;;;;;;;;;;;4975243;28;20065;-44
2024/03/19 12:32:36;;;;;;;;;;;;;;;;;;4975514;28;19920;-44
2024/03/19 12:35:05;;;;;;;;;;;;;;;;;;4975063;28;19917;-45
2024/03/19 12:37:31;;;;;;;;;;;;;;;;;;4975328;28;19997;-45
2024/03/19 12:39:57;;;;;;;;;;;;;;;;;;4974934;28;19911;-45
2024/03/19 12:42:23;;;;;;;;;;;;;;;;;;4975314;28;19914;-45
2024/03/19 12:44:50;;;;;;;;;;;;;;;;;;4975239;28;20296;-45
2024/03/19 12:47:16;;;;;;;;;;;;;;;;;;4974986;28;19917;-45
2024/03/19 12:49:42;;;;;;;;;;;;;;;;;;4974715;28;19918;-45
2024/03/19 12:52:08;;;;;;;;;;;;;;;;;;4974922;28;19921;-47
2024/03/19 12:54:34;;;;;;;;;;;;;;;;;;4974668;28;19910;-45
2024/03/19 12:57:00;;;;;;;;;;;;;;;;;;4974904;28;19953;-48
2024/03/19 12:59:26;;;;;;;;;;;;;;;;;;4974489;28;19914;-46
2024/03/19 13:01:52;;;;;;;;;;;;;;;;;;4974945;28;20506;-46
2024/03/19 13:04:18;;;;;;;;;;;;;;;;;;4974324;28;19914;-45
2024/03/19 13:06:43;;;;;;;;;;;;;;;;;;4974797;28;19910;-45
2024/03/19 13:09:11;;;;;;;;;;;;;;;;;;4974507;28;19910;-46
2024/03/19 13:11:37;;;;;;;;;;;;;;;;;;4974545;28;19910;-46
2024/03/19 13:14:03;;;;;;;;;;;;;;;;;;4974556;28;19917;-49
2024/03/19 13:16:30;;;;;;;;;;;;;;;;;;4974368;28;19916;-45
2024/03/19 13:18:56;;;;;;;;;;;;;;;;;;4974398;28;20376;-45
2024/03/19 13:21:22;;;;;;;;;;;;;;;;;;4974622;28;19910;-45
2024/03/19 13:23:49;;;;;;;;;;;;;;;;;;4974350;28;20005;-47
2024/03/19 13:26:15;;;;;;;;;;;;;;;;;;4974299;28;19914;-44
2024/03/19 13:28:41;;;;;;;;;;;;;;;;;;4974272;28;19910;-45
2024/03/19 13:31:07;;;;;;;;;;;;;;;;;;4973989;28;19911;-44
2024/03/19 13:33:33;;;;;;;;;;;;;;;;;;4974210;28;20009;-44
2024/03/19 13:35:59;;;;;;;;;;;;;;;;;;4974070;28;19917;-44
2024/03/19 13:38:25;;;;;;;;;;;;;;;;;;4973327;28;19906;-45
2024/03/19 13:40:50;;;;;;;;;;;;;;;;;;4973888;28;19910;-44
2024/03/19 13:43:16;;;;;;;;;;;;;;;;;;4974080;28;20005;-45
2024/03/19 13:45:42;;;;;;;;;;;;;;;;;;4973787;28;19914;-44
2024/03/19 13:48:08;;;;;;;;;;;;;;;;;;4973847;28;19910;-45
2024/03/19 13:50:34;;;;;;;;;;;;;;;;;;4973656;28;19957;-45
2024/03/19 13:53:00;;;;;;;;;;;;;;;;;;4973843;28;19914;-45
2024/03/19 13:55:31;;;;;;;;;;;;;;;;;;4974004;28;19910;-44
2024/03/19 13:57:57;;;;;;;;;;;;;;;;;;4973969;28;19937;-44
2024/03/19 14:00:24;;;;;;;;;;;;;;;;;;4973360;28;19941;-45
2024/03/19 14:02:50;;;;;;;;;;;;;;;;;;4973648;28;19953;-45
2024/03/19 14:05:16;;;;;;;;;;;;;;;;;;4973483;28;20366;-45
2024/03/19 14:07:43;;;;;;;;;;;;;;;;;;4973611;28;19914;-46
2024/03/19 14:10:09;;;;;;;;;;;;;;;;;;4973310;28;19961;-46
2024/03/19 14:12:35;;;;;;;;;;;;;;;;;;4973352;28;19961;-45
2024/03/19 14:15:02;;;;;;;;;;;;;;;;;;4973226;28;19911;-46
2024/03/19 14:17:28;;;;;;;;;;;;;;;;;;4972981;28;19910;-45
2024/03/19 14:19:53;;;;;;;;;;;;;;;;;;4973683;28;19965;-45
2024/03/19 14:22:21;;;;;;;;;;;;;;;;;;4973335;28;19910;-45
2024/03/19 14:24:47;;;;;;;;;;;;;;;;;;4973266;28;20395;-48
2024/03/19 14:27:13;;;;;;;;;;;;;;;;;;4973175;28;19910;-49
2024/03/19 14:29:39;;;;;;;;;;;;;;;;;;4973074;28;19910;-48
2024/03/19 14:32:05;;;;;;;;;;;;;;;;;;4972827;28;20300;-44
2024/03/19 14:34:31;;;;;;;;;;;;;;;;;;4972996;28;19910;-47
2024/03/19 14:36:57;;;;;;;;;;;;;;;;;;4973163;28;19910;-46
2024/03/19 14:39:25;;;;;;;;;;;;;;;;;;4973249;28;19914;-47
2024/03/19 14:41:51;;;;;;;;;;;;;;;;;;4973162;28;19957;-49
2024/03/19 14:44:17;;;;;;;;;;;;;;;;;;4972913;28;20368;-47
2024/03/19 14:46:43;;;;;;;;;;;;;;;;;;4972593;28;19910;-47
2024/03/19 14:49:09;;;;;;;;;;;;;;;;;;4972750;28;19910;-47
2024/03/19 14:51:35;;;;;;;;;;;;;;;;;;4972469;28;20012;-49
2024/03/19 14:54:01;;;;;;;;;;;;;;;;;;4972756;28;19969;-46
2024/03/19 14:56:27;;;;;;;;;;;;;;;;;;4972739;28;19911;-47
2024/03/19 14:58:53;;;;;;;;;;;;;;;;;;4972541;28;19976;-48
2024/03/19 15:01:18;;;;;;;;;;;;;;;;;;4972425;28;20402;-48
2024/03/19 15:03:44;;;;;;;;;;;;;;;;;;4972772;28;20328;-49
2024/03/19 15:06:12;;;;;;;;;;;;;;;;;;4972389;28;19910;-48
2024/03/19 15:08:38;;;;;;;;;;;;;;;;;;4972449;28;19917;-46
2024/03/19 15:11:04;;;;;;;;;;;;;;;;;;4972308;28;19910;-47
2024/03/19 15:13:30;;;;;;;;;;;;;;;;;;4972676;28;19914;-46
2024/03/19 15:15:56;;;;;;;;;;;;;;;;;;4972551;28;19949;-49
2024/03/19 15:18:22;;;;;;;;;;;;;;;;;;4972350;28;19910;-46
2024/03/19 15:20:48;;;;;;;;;;;;;;;;;;4972169;28;19941;-46
2024/03/19 15:23:15;;;;;;;;;;;;;;;;;;4972315;28;19906;-48
2024/03/19 15:25:42;;;;;;;;;;;;;;;;;;4972243;28;19910;-50
2024/03/19 15:28:09;;;;;;;;;;;;;;;;;;4972294;28;20490;-45
2024/03/19 15:30:36;;;;;;;;;;;;;;;;;;4972081;28;19960;-46
2024/03/19 15:33:02;;;;;;;;;;;;;;;;;;4972157;28;20298;-45
2024/03/19 15:35:28;;;;;;;;;;;;;;;;;;4972364;28;20012;-47
2024/03/19 15:37:54;;;;;;;;;;;;;;;;;;4971944;28;19965;-46
2024/03/19 15:40:20;;;;;;;;;;;;;;;;;;4972025;28;19911;-48
2024/03/19 15:42:46;;;;;;;;;;;;;;;;;;4971704;28;19910;-45
2024/03/19 15:45:11;;;;;;;;;;;;;;;;;;4972117;28;19918;-46
2024/03/19 15:47:37;;;;;;;;;;;;;;;;;;4971870;28;19910;-45
2024/03/19 15:50:05;;;;;;;;;;;;;;;;;;4971940;28;19917;-46
2024/03/19 15:52:30;;;;;;;;;;;;;;;;;;4971812;28;20012;-48
2024/03/19 15:54:56;;;;;;;;;;;;;;;;;;4971889;28;19953;-47
2024/03/19 15:57:22;;;;;;;;;;;;;;;;;;4971831;28;20503;-46
2024/03/19 15:59:48;;;;;;;;;;;;;;;;;;4971568;28;19937;-46
2024/03/19 16:02:14;;;;;;;;;;;;;;;;;;4971548;28;19918;-46
2024/03/19 16:04:40;;;;;;;;;;;;;;;;;;4971872;28;19917;-46
2024/03/19 16:07:07;;;;;;;;;;;;;;;;;;4971680;28;19914;-49
2024/03/19 16:09:33;;;;;;;;;;;;;;;;;;4971673;28;20299;-46
2024/03/19 16:11:59;;;;;;;;;;;;;;;;;;4971867;28;19920;-45
2024/03/19 16:14:25;;;;;;;;;;;;;;;;;;4971837;28;20169;-45
2024/03/19 16:16:51;;;;;;;;;;;;;;;;;;4971613;28;19911;-45
2024/03/19 16:19:18;;;;;;;;;;;;;;;;;;4971674;28;19910;-45
2024/03/19 16:21:45;;;;;;;;;;;;;;;;;;4971571;28;19911;-45
2024/03/19 16:24:11;;;;;;;;;;;;;;;;;;4971511;28;19910;-45
2024/03/19 16:26:37;;;;;;;;;;;;;;;;;;4971670;28;19910;-46
2024/03/19 16:29:03;;;;;;;;;;;;;;;;;;4971845;28;19914;-49
2024/03/19 16:31:29;;;;;;;;;;;;;;;;;;4971547;28;19910;-48
2024/03/19 16:33:54;;;;;;;;;;;;;;;;;;4971688;28;20089;-49
2024/03/19 16:36:20;;;;;;;;;;;;;;;;;;4971557;28;19911;-47
2024/03/19 16:38:47;;;;;;;;;;;;;;;;;;4971222;28;19915;-48
2024/03/19 16:41:12;;;;;;;;;;;;;;;;;;4974679;28;19957;-45
2024/03/19 16:43:39;;;;;;;;;;;;;;;;;;4974967;28;19982;-48
2024/03/19 16:46:08;;;;;;;;;;;;;;;;;;4975527;28;19914;-49
2024/03/19 16:48:35;;;;;;;;;;;;;;;;;;4975150;28;20299;-46
2024/03/19 16:51:03;;;;;;;;;;;;;;;;;;4975186;28;19918;-46
2024/03/19 16:53:31;;;;;;;;;;;;;;;;;;4974647;28;19956;-49
2024/03/19 16:55:57;;;;;;;;;;;;;;;;;;4974961;28;19914;-50
2024/03/19 16:58:22;;;;;;;;;;;;;;;;;;4974740;28;19949;-46
2024/03/19 17:00:48;;;;;;;;;;;;;;;;;;4974494;28;19968;-50
2024/03/19 17:03:15;;;;;;;;;;;;;;;;;;4974629;28;20281;-46
2024/03/19 17:05:42;;;;;;;;;;;;;;;;;;4974766;28;19910;-46
2024/03/19 17:08:08;;;;;;;;;;;;;;;;;;4974569;28;19906;-47
2024/03/19 17:10:34;;;;;;;;;;;;;;;;;;4974870;28;19918;-47
2024/03/19 17:13:00;;;;;;;;;;;;;;;;;;4974555;28;19968;-48
2024/03/19 17:15:26;;;;;;;;;;;;;;;;;;4974568;28;19981;-48
2024/03/19 17:17:51;;;;;;;;;;;;;;;;;;4974300;28;19917;-45
2024/03/19 17:20:18;;;;;;;;;;;;;;;;;;4974441;28;19933;-50
2024/03/19 17:22:44;;;;;;;;;;;;;;;;;;4974374;28;20360;-46
2024/03/19 17:25:11;;;;;;;;;;;;;;;;;;4974396;28;19914;-49
2024/03/19 17:27:37;;;;;;;;;;;;;;;;;;4974572;28;19910;-46
2024/03/19 17:30:04;;;;;;;;;;;;;;;;;;4974485;28;19964;-47
2024/03/19 17:32:34;;;;;;;;;;;;;;;;;;4974149;28;19922;-49
2024/03/19 17:35:00;;;;;;;;;;;;;;;;;;4974227;28;20392;-48
2024/03/19 17:37:26;;;;;;;;;;;;;;;;;;4973929;28;19985;-46
2024/03/19 17:39:52;;;;;;;;;;;;;;;;;;4974122;28;19914;-46
2024/03/19 17:42:18;;;;;;;;;;;;;;;;;;4974114;28;20307;-45
2024/03/19 17:44:44;;;;;;;;;;;;;;;;;;4974043;28;19911;-46
2024/03/19 17:47:11;;;;;;;;;;;;;;;;;;4974164;28;19945;-45
2024/03/19 17:49:37;;;;;;;;;;;;;;;;;;4973829;28;19918;-47
2024/03/19 17:52:03;;;;;;;;;;;;;;;;;;4972907;28;19914;-46
2024/03/19 17:54:29;;;;;;;;;;;;;;;;;;4973592;28;19964;-46
2024/03/19 17:56:54;;;;;;;;;;;;;;;;;;4973866;28;19914;-47
2024/03/19 17:59:20;;;;;;;;;;;;;;;;;;4971852;28;19921;-45
2024/03/19 18:01:46;;;;;;;;;;;;;;;;;;4972856;28;19929;-46
2024/03/19 18:04:12;;;;;;;;;;;;;;;;;;4968116;28;19972;-45
2024/03/19 18:06:41;;;;;;;;;;;;;;;;;;4970931;28;20180;-49
2024/03/19 18:09:08;;;;;;;;;;;;;;;;;;4973049;28;19919;-46
2024/03/19 18:11:34;;;;;;;;;;;;;;;;;;4976417;28;20455;-45
2024/03/19 18:14:00;;;;;;;;;;;;;;;;;;4971681;28;19918;-49
2024/03/19 18:16:28;;;;;;;;;;;;;;;;;;4971405;28;21379;-49
2024/03/19 18:18:54;;;;;;;;;;;;;;;;;;4988198;28;19910;-46
2024/03/19 18:21:20;;;;;;;;;;;;;;;;;;4988070;28;19921;-45
2024/03/19 18:23:45;;;;;;;;;;;;;;;;;;4982517;28;19920;-45
2024/03/19 18:26:12;;;;;;;;;;;;;;;;;;4972966;28;19914;-47
2024/03/19 18:28:38;;;;;;;;;;;;;;;;;;4973443;28;19914;-48
2024/03/19 18:31:03;;;;;;;;;;;;;;;;;;4971589;28;20388;-45
2024/03/19 18:33:29;;;;;;;;;;;;;;;;;;4981549;28;19922;-46
2024/03/19 18:35:55;;;;;;;;;;;;;;;;;;4973043;28;19910;-46
2024/03/19 18:38:21;;;;;;;;;;;;;;;;;;4973152;28;20337;-45
2024/03/19 18:40:50;;;;;;;;;;;;;;;;;;4972770;28;19910;-46
2024/03/19 18:43:16;;;;;;;;;;;;;;;;;;4972728;28;19917;-45
2024/03/19 18:45:42;;;;;;;;;;;;;;;;;;4971863;28;19918;-45
2024/03/19 18:48:08;;;;;;;;;;;;;;;;;;4984141;28;19917;-49
2024/03/19 18:50:34;;;;;;;;;;;;;;;;;;4984481;28;19921;-47
2024/03/19 18:53:00;;;;;;;;;;;;;;;;;;4969862;28;19918;-46
2024/03/19 18:55:26;;;;;;;;;;;;;;;;;;4971215;28;19968;-46
2024/03/19 18:57:53;;;;;;;;;;;;;;;;;;4971887;28;20407;-48
2024/03/19 19:00:19;;;;;;;;;;;;;;;;;;4972853;28;19918;-48
2024/03/19 19:02:44;;;;;;;;;;;;;;;;;;4988996;28;20291;-46
2024/03/19 19:05:11;;;;;;;;;;;;;;;;;;4984469;28;19922;-47
2024/03/19 19:07:37;;;;;;;;;;;;;;;;;;4969996;28;19921;-48
2024/03/19 19:10:03;;;;;;;;;;;;;;;;;;4984870;28;20287;-46
2024/03/19 19:12:28;;;;;;;;;;;;;;;;;;4989805;28;19918;-47
2024/03/19 19:14:54;;;;;;;;;;;;;;;;;;4970493;28;20391;-47
2024/03/19 19:17:20;;;;;;;;;;;;;;;;;;4972475;28;19910;-45
2024/03/19 19:19:46;;;;;;;;;;;;;;;;;;4968843;28;20004;-49
2024/03/19 19:22:12;;;;;;;;;;;;;;;;;;4981880;28;19922;-44
2024/03/19 19:24:38;;;;;;;;;;;;;;;;;;4974152;28;19918;-45
2024/03/19 19:27:04;;;;;;;;;;;;;;;;;;4974838;28;20250;-45
2024/03/19 19:29:31;;;;;;;;;;;;;;;;;;4971031;28;19945;-48
2024/03/19 19:31:57;;;;;;;;;;;;;;;;;;4973590;28;19917;-48
2024/03/19 19:34:23;;;;;;;;;;;;;;;;;;4972843;28;20020;-46
2024/03/19 19:36:49;;;;;;;;;;;;;;;;;;4974382;28;19922;-48
2024/03/19 19:39:21;;;;;;;;;;;;;;;;;;4970865;28;19969;-46
2024/03/19 19:41:47;;;;;;;;;;;;;;;;;;4967437;28;19914;-48
2024/03/19 19:44:13;;;;;;;;;;;;;;;;;;4967887;28;19922;-45
2024/03/19 19:46:41;;;;;;;;;;;;;;;;;;4970849;28;19915;-46
2024/03/19 19:49:07;;;;;;;;;;;;;;;;;;4967535;28;20311;-46
2024/03/19 19:51:33;;;;;;;;;;;;;;;;;;4967061;28;19918;-47
2024/03/19 19:53:59;;;;;;;;;;;;;;;;;;4969741;28;19925;-45
2024/03/19 19:56:25;;;;;;;;;;;;;;;;;;4970037;28;19914;-46
2024/03/19 19:58:50;;;;;;;;;;;;;;;;;;4969235;28;19914;-47
2024/03/19 20:01:18;;;;;;;;;;;;;;;;;;4985033;28;19919;-44
2024/03/19 20:03:45;;;;;;;;;;;;;;;;;;4971556;28;19949;-45
2024/03/19 20:06:11;;;;;;;;;;;;;;;;;;4971570;28;19992;-48
2024/03/19 20:08:37;;;;;;;;;;;;;;;;;;4969013;28;20618;-47
2024/03/19 20:11:04;;;;;;;;;;;;;;;;;;4968185;28;19925;-47
2024/03/19 20:13:30;;;;;;;;;;;;;;;;;;4969226;28;19925;-45
2024/03/19 20:15:56;;;;;;;;;;;;;;;;;;4972773;28;19910;-46
2024/03/19 20:18:22;;;;;;;;;;;;;;;;;;4993497;28;19961;-47
2024/03/19 20:20:48;;;;;;;;;;;;;;;;;;4992481;28;19910;-44
2024/03/19 20:23:14;;;;;;;;;;;;;;;;;;4974615;28;20304;-46
2024/03/19 20:25:41;;;;;;;;;;;;;;;;;;4974629;28;19910;-47
2024/03/19 20:28:08;;;;;;;;;;;;;;;;;;4975156;28;20456;-44
2024/03/19 20:30:34;;;;;;;;;;;;;;;;;;4973925;28;19910;-44
2024/03/19 20:33:00;;;;;;;;;;;;;;;;;;4974644;28;19921;-44
2024/03/19 20:35:26;;;;;;;;;;;;;;;;;;4983526;28;20281;-44
2024/03/19 20:37:51;;;;;;;;;;;;;;;;;;4982677;28;19997;-44
2024/03/19 20:40:17;;;;;;;;;;;;;;;;;;4974275;28;19914;-45
2024/03/19 20:42:44;;;;;;;;;;;;;;;;;;4974978;28;19914;-47
2024/03/19 20:45:10;;;;;;;;;;;;;;;;;;4974474;28;19957;-48
2024/03/19 20:47:36;;;;;;;;;;;;;;;;;;4974434;28;19921;-47
2024/03/19 20:50:02;;;;;;;;;;;;;;;;;;4974662;28;19918;-48
2024/03/19 20:52:28;;;;;;;;;;;;;;;;;;4974130;28;20296;-45
2024/03/19 20:54:54;;;;;;;;;;;;;;;;;;4973876;28;20049;-45
2024/03/19 20:57:20;;;;;;;;;;;;;;;;;;4974761;28;19922;-47
2024/03/19 20:59:46;;;;;;;;;;;;;;;;;;4989139;28;19906;-46
2024/03/19 21:02:12;;;;;;;;;;;;;;;;;;4974469;28;19934;-47
2024/03/19 21:04:38;;;;;;;;;;;;;;;;;;4973314;28;19918;-46
2024/03/19 21:07:04;;;;;;;;;;;;;;;;;;4974196;28;19965;-49
2024/03/19 21:09:31;;;;;;;;;;;;;;;;;;4984632;28;19921;-46
2024/03/19 21:11:58;;;;;;;;;;;;;;;;;;4988497;28;19957;-46
2024/03/19 21:14:24;;;;;;;;;;;;;;;;;;4974141;28;19910;-45
2024/03/19 21:16:50;;;;;;;;;;;;;;;;;;4973726;28;20281;-46
2024/03/19 21:19:17;;;;;;;;;;;;;;;;;;4972893;28;19914;-45
2024/03/19 21:21:43;;;;;;;;;;;;;;;;;;4971449;28;20913;-45
2024/03/19 21:24:08;;;;;;;;;;;;;;;;;;4977972;28;19917;-46
2024/03/19 21:26:34;;;;;;;;;;;;;;;;;;4992719;28;19910;-44
2024/03/19 21:29:00;;;;;;;;;;;;;;;;;;4981215;28;20017;-45
2024/03/19 21:31:26;;;;;;;;;;;;;;;;;;4990524;28;19914;-46
2024/03/19 21:33:52;;;;;;;;;;;;;;;;;;4993230;28;19925;-46
2024/03/19 21:36:20;;;;;;;;;;;;;;;;;;4983809;28;19914;-46
2024/03/19 21:38:46;;;;;;;;;;;;;;;;;;4992501;28;19921;-45
2024/03/19 21:41:11;;;;;;;;;;;;;;;;;;4971653;28;19922;-45
2024/03/19 21:43:37;;;;;;;;;;;;;;;;;;4969552;28;20019;-46
2024/03/19 21:46:04;;;;;;;;;;;;;;;;;;4980907;28;19976;-46
2024/03/19 21:48:30;;;;;;;;;;;;;;;;;;4990930;28;19910;-45
2024/03/19 21:50:56;;;;;;;;;;;;;;;;;;4991262;28;20384;-44
2024/03/19 21:53:22;;;;;;;;;;;;;;;;;;4992532;28;19917;-45
2024/03/19 21:55:48;;;;;;;;;;;;;;;;;;4992858;28;20008;-49
2024/03/19 21:58:14;;;;;;;;;;;;;;;;;;4992777;28;19906;-46
2024/03/19 22:00:40;;;;;;;;;;;;;;;;;;4990966;28;19981;-47
2024/03/19 22:03:06;;;;;;;;;;;;;;;;;;4992483;28;19916;-48
2024/03/19 22:05:32;;;;;;;;;;;;;;;;;;4992301;28;19910;-46
2024/03/19 22:07:58;;;;;;;;;;;;;;;;;;4992552;28;19914;-46
2024/03/19 22:10:24;;;;;;;;;;;;;;;;;;4987977;28;19985;-45
2024/03/19 22:12:50;;;;;;;;;;;;;;;;;;4992212;28;19914;-45
2024/03/19 22:15:17;;;;;;;;;;;;;;;;;;4992663;28;19910;-47
2024/03/19 22:17:43;;;;;;;;;;;;;;;;;;4991871;28;20070;-47
2024/03/19 22:20:10;;;;;;;;;;;;;;;;;;4992245;28;20012;-48
2024/03/19 22:22:35;;;;;;;;;;;;;;;;;;4991638;28;20005;-48
2024/03/19 22:25:03;;;;;;;;;;;;;;;;;;4992184;28;20008;-46
2024/03/19 22:27:29;;;;;;;;;;;;;;;;;;4987248;28;19917;-45
2024/03/19 22:29:55;;;;;;;;;;;;;;;;;;4991977;28;20510;-47
2024/03/19 22:32:21;;;;;;;;;;;;;;;;;;4976841;28;19973;-44
2024/03/19 22:34:47;;;;;;;;;;;;;;;;;;4972738;28;19910;-49
2024/03/19 22:37:12;;;;;;;;;;;;;;;;;;4990851;28;19921;-46
2024/03/19 22:39:40;;;;;;;;;;;;;;;;;;4991699;28;20001;-45